sensor_id;sensor_type;location;lat;lon;timestamp;P1;durP1;ratioP1;P2;durP2;ratioP2
53751;SDS011;41095;53.090;6.692;2023-04-06T00:01:37;7.45;;;6.40;;
53751;SDS011;41095;53.090;6.692;2023-04-06T00:04:04;7.85;;;7.07;;
53751;SDS011;41095;53.090;6.692;2023-04-06T00:06:30;9.70;;;6.70;;
53751;SDS011;41095;53.090;6.692;2023-04-06T00:08:57;7.25;;;6.45;;
53751;SDS011;41095;53.090;6.692;2023-04-06T00:11:23;9.13;;;6.25;;
53751;SDS011;41095;53.090;6.692;2023-04-06T00:13:48;7.93;;;7.13;;
53751;SDS011;41095;53.090;6.692;2023-04-06T00:16:14;6.97;;;6.28;;
53751;SDS011;41095;53.090;6.692;2023-04-06T00:18:40;8.15;;;5.82;;
53751;SDS011;41095;53.090;6.692;2023-04-06T00:21:06;10.80;;;6.70;;
53751;SDS011;41095;53.090;6.692;2023-04-06T00:23:32;7.90;;;6.85;;
53751;SDS011;41095;53.090;6.692;2023-04-06T00:25:57;7.68;;;6.97;;
53751;SDS011;41095;53.090;6.692;2023-04-06T00:28:23;7.30;;;6.60;;
53751;SDS011;41095;53.090;6.692;2023-04-06T00:30:53;12.77;;;7.78;;
53751;SDS011;41095;53.090;6.692;2023-04-06T00:33:20;7.05;;;6.35;;
53751;SDS011;41095;53.090;6.692;2023-04-06T00:35:46;10.65;;;7.25;;
53751;SDS011;41095;53.090;6.692;2023-04-06T00:38:12;8.32;;;7.47;;
53751;SDS011;41095;53.090;6.692;2023-04-06T00:40:37;8.57;;;7.38;;
53751;SDS011;41095;53.090;6.692;2023-04-06T00:43:05;7.00;;;6.40;;
53751;SDS011;41095;53.090;6.692;2023-04-06T00:45:31;7.75;;;7.05;;
53751;SDS011;41095;53.090;6.692;2023-04-06T00:47:58;7.88;;;6.90;;
53751;SDS011;41095;53.090;6.692;2023-04-06T00:50:23;9.55;;;7.38;;
53751;SDS011;41095;53.090;6.692;2023-04-06T00:52:49;7.40;;;6.70;;
53751;SDS011;41095;53.090;6.692;2023-04-06T00:55:16;9.10;;;6.80;;
53751;SDS011;41095;53.090;6.692;2023-04-06T00:57:42;8.27;;;7.47;;
53751;SDS011;41095;53.090;6.692;2023-04-06T01:00:08;8.07;;;6.50;;
53751;SDS011;41095;53.090;6.692;2023-04-06T01:02:34;8.20;;;7.50;;
53751;SDS011;41095;53.090;6.692;2023-04-06T01:05:01;8.20;;;7.40;;
53751;SDS011;41095;53.090;6.692;2023-04-06T01:07:27;7.72;;;6.90;;
53751;SDS011;41095;53.090;6.692;2023-04-06T01:09:53;9.63;;;7.55;;
53751;SDS011;41095;53.090;6.692;2023-04-06T01:12:19;8.50;;;7.70;;
53751;SDS011;41095;53.090;6.692;2023-04-06T01:14:45;8.35;;;7.55;;
53751;SDS011;41095;53.090;6.692;2023-04-06T01:17:11;8.52;;;7.63;;
53751;SDS011;41095;53.090;6.692;2023-04-06T01:19:37;8.52;;;7.43;;
53751;SDS011;41095;53.090;6.692;2023-04-06T01:22:05;7.93;;;7.22;;
53751;SDS011;41095;53.090;6.692;2023-04-06T01:24:31;10.95;;;7.80;;
53751;SDS011;41095;53.090;6.692;2023-04-06T01:26:57;9.55;;;8.55;;
53751;SDS011;41095;53.090;6.692;2023-04-06T01:29:22;9.18;;;8.20;;
53751;SDS011;41095;53.090;6.692;2023-04-06T01:31:48;8.90;;;8.00;;
53751;SDS011;41095;53.090;6.692;2023-04-06T01:34:14;9.35;;;7.25;;
53751;SDS011;41095;53.090;6.692;2023-04-06T01:36:39;10.77;;;7.60;;
53751;SDS011;41095;53.090;6.692;2023-04-06T01:39:05;8.60;;;7.72;;
53751;SDS011;41095;53.090;6.692;2023-04-06T01:41:31;9.38;;;8.27;;
53751;SDS011;41095;53.090;6.692;2023-04-06T01:43:57;8.07;;;7.30;;
53751;SDS011;41095;53.090;6.692;2023-04-06T01:46:22;10.15;;;9.13;;
53751;SDS011;41095;53.090;6.692;2023-04-06T01:48:48;9.93;;;8.13;;
53751;SDS011;41095;53.090;6.692;2023-04-06T01:51:14;9.38;;;8.10;;
53751;SDS011;41095;53.090;6.692;2023-04-06T01:53:40;9.10;;;8.20;;
53751;SDS011;41095;53.090;6.692;2023-04-06T01:56:05;9.90;;;8.75;;
53751;SDS011;41095;53.090;6.692;2023-04-06T01:58:31;11.35;;;9.55;;
53751;SDS011;41095;53.090;6.692;2023-04-06T02:00:57;9.68;;;8.38;;
53751;SDS011;41095;53.090;6.692;2023-04-06T02:03:23;9.77;;;8.68;;
53751;SDS011;41095;53.090;6.692;2023-04-06T02:05:49;9.43;;;8.63;;
53751;SDS011;41095;53.090;6.692;2023-04-06T02:08:15;12.40;;;8.63;;
53751;SDS011;41095;53.090;6.692;2023-04-06T02:10:40;9.52;;;8.45;;
53751;SDS011;41095;53.090;6.692;2023-04-06T02:13:06;9.68;;;8.63;;
53751;SDS011;41095;53.090;6.692;2023-04-06T02:15:32;11.88;;;9.02;;
53751;SDS011;41095;53.090;6.692;2023-04-06T02:17:58;10.30;;;8.88;;
53751;SDS011;41095;53.090;6.692;2023-04-06T02:20:24;12.02;;;9.00;;
53751;SDS011;41095;53.090;6.692;2023-04-06T02:22:50;12.23;;;9.02;;
53751;SDS011;41095;53.090;6.692;2023-04-06T02:25:15;9.18;;;8.25;;
53751;SDS011;41095;53.090;6.692;2023-04-06T02:27:42;9.82;;;8.60;;
53751;SDS011;41095;53.090;6.692;2023-04-06T02:30:07;9.98;;;9.05;;
53751;SDS011;41095;53.090;6.692;2023-04-06T02:32:34;12.55;;;9.73;;
53751;SDS011;41095;53.090;6.692;2023-04-06T02:34:59;12.75;;;9.35;;
53751;SDS011;41095;53.090;6.692;2023-04-06T02:37:25;11.68;;;8.85;;
53751;SDS011;41095;53.090;6.692;2023-04-06T02:39:51;12.52;;;8.70;;
53751;SDS011;41095;53.090;6.692;2023-04-06T02:42:17;9.80;;;8.73;;
53751;SDS011;41095;53.090;6.692;2023-04-06T02:44:42;9.43;;;8.43;;
53751;SDS011;41095;53.090;6.692;2023-04-06T02:47:08;9.45;;;7.63;;
53751;SDS011;41095;53.090;6.692;2023-04-06T02:49:34;8.80;;;7.88;;
53751;SDS011;41095;53.090;6.692;2023-04-06T02:52:00;9.00;;;8.07;;
53751;SDS011;41095;53.090;6.692;2023-04-06T02:54:26;10.02;;;9.00;;
53751;SDS011;41095;53.090;6.692;2023-04-06T02:56:51;15.70;;;8.77;;
53751;SDS011;41095;53.090;6.692;2023-04-06T02:59:17;9.40;;;7.70;;
53751;SDS011;41095;53.090;6.692;2023-04-06T03:01:43;10.82;;;8.98;;
53751;SDS011;41095;53.090;6.692;2023-04-06T03:04:09;11.10;;;9.77;;
53751;SDS011;41095;53.090;6.692;2023-04-06T03:06:34;10.77;;;9.38;;
53751;SDS011;41095;53.090;6.692;2023-04-06T03:09:00;9.82;;;8.50;;
53751;SDS011;41095;53.090;6.692;2023-04-06T03:11:26;9.80;;;8.20;;
53751;SDS011;41095;53.090;6.692;2023-04-06T03:13:52;8.90;;;7.60;;
53751;SDS011;41095;53.090;6.692;2023-04-06T03:16:17;9.80;;;8.88;;
53751;SDS011;41095;53.090;6.692;2023-04-06T03:18:43;9.77;;;7.35;;
53751;SDS011;41095;53.090;6.692;2023-04-06T03:21:10;9.48;;;8.48;;
53751;SDS011;41095;53.090;6.692;2023-04-06T03:23:36;10.70;;;8.98;;
53751;SDS011;41095;53.090;6.692;2023-04-06T03:26:01;10.25;;;8.45;;
53751;SDS011;41095;53.090;6.692;2023-04-06T03:28:27;9.25;;;8.23;;
53751;SDS011;41095;53.090;6.692;2023-04-06T03:30:53;9.70;;;8.88;;
53751;SDS011;41095;53.090;6.692;2023-04-06T03:33:19;13.75;;;9.27;;
53751;SDS011;41095;53.090;6.692;2023-04-06T03:35:45;10.65;;;9.63;;
53751;SDS011;41095;53.090;6.692;2023-04-06T03:38:11;8.95;;;8.07;;
53751;SDS011;41095;53.090;6.692;2023-04-06T03:40:36;13.13;;;7.75;;
53751;SDS011;41095;53.090;6.692;2023-04-06T03:43:02;9.95;;;8.85;;
53751;SDS011;41095;53.090;6.692;2023-04-06T03:45:28;10.05;;;8.50;;
53751;SDS011;41095;53.090;6.692;2023-04-06T03:47:54;11.02;;;8.55;;
53751;SDS011;41095;53.090;6.692;2023-04-06T03:50:20;10.65;;;8.45;;
53751;SDS011;41095;53.090;6.692;2023-04-06T03:52:46;10.27;;;8.43;;
53751;SDS011;41095;53.090;6.692;2023-04-06T03:55:11;15.65;;;9.32;;
53751;SDS011;41095;53.090;6.692;2023-04-06T03:57:37;9.23;;;8.32;;
53751;SDS011;41095;53.090;6.692;2023-04-06T04:00:03;9.52;;;8.63;;
53751;SDS011;41095;53.090;6.692;2023-04-06T04:02:29;8.82;;;7.93;;
53751;SDS011;41095;53.090;6.692;2023-04-06T04:04:54;9.43;;;7.90;;
53751;SDS011;41095;53.090;6.692;2023-04-06T04:07:20;9.32;;;8.43;;
53751;SDS011;41095;53.090;6.692;2023-04-06T04:09:46;8.98;;;8.07;;
53751;SDS011;41095;53.090;6.692;2023-04-06T04:12:12;8.52;;;7.57;;
53751;SDS011;41095;53.090;6.692;2023-04-06T04:14:39;9.52;;;8.23;;
53751;SDS011;41095;53.090;6.692;2023-04-06T04:17:05;9.25;;;8.35;;
53751;SDS011;41095;53.090;6.692;2023-04-06T04:19:31;9.13;;;7.97;;
53751;SDS011;41095;53.090;6.692;2023-04-06T04:21:56;10.25;;;8.75;;
53751;SDS011;41095;53.090;6.692;2023-04-06T04:24:22;9.52;;;7.75;;
53751;SDS011;41095;53.090;6.692;2023-04-06T04:26:48;10.00;;;8.98;;
53751;SDS011;41095;53.090;6.692;2023-04-06T04:29:13;9.30;;;8.10;;
53751;SDS011;41095;53.090;6.692;2023-04-06T04:31:40;8.88;;;7.97;;
53751;SDS011;41095;53.090;6.692;2023-04-06T04:34:06;9.90;;;8.38;;
53751;SDS011;41095;53.090;6.692;2023-04-06T04:36:32;11.60;;;9.02;;
53751;SDS011;41095;53.090;6.692;2023-04-06T04:38:57;10.32;;;8.63;;
53751;SDS011;41095;53.090;6.692;2023-04-06T04:41:23;10.90;;;9.27;;
53751;SDS011;41095;53.090;6.692;2023-04-06T04:43:49;9.23;;;8.27;;
53751;SDS011;41095;53.090;6.692;2023-04-06T04:46:15;10.45;;;9.23;;
53751;SDS011;41095;53.090;6.692;2023-04-06T04:48:40;10.98;;;8.38;;
53751;SDS011;41095;53.090;6.692;2023-04-06T04:51:06;9.88;;;8.95;;
53751;SDS011;41095;53.090;6.692;2023-04-06T04:53:32;9.35;;;8.38;;
53751;SDS011;41095;53.090;6.692;2023-04-06T04:55:58;10.05;;;8.30;;
53751;SDS011;41095;53.090;6.692;2023-04-06T04:58:23;12.65;;;9.50;;
53751;SDS011;41095;53.090;6.692;2023-04-06T05:00:49;11.35;;;8.63;;
53751;SDS011;41095;53.090;6.692;2023-04-06T05:03:19;9.85;;;8.30;;
53751;SDS011;41095;53.090;6.692;2023-04-06T05:05:48;10.23;;;8.10;;
53751;SDS011;41095;53.090;6.692;2023-04-06T05:08:13;8.70;;;7.82;;
53751;SDS011;41095;53.090;6.692;2023-04-06T05:10:40;10.43;;;9.43;;
53751;SDS011;41095;53.090;6.692;2023-04-06T05:13:06;11.02;;;8.45;;
53751;SDS011;41095;53.090;6.692;2023-04-06T05:15:32;14.38;;;9.18;;
53751;SDS011;41095;53.090;6.692;2023-04-06T05:18:00;12.73;;;8.45;;
53751;SDS011;41095;53.090;6.692;2023-04-06T05:20:26;8.52;;;7.70;;
53751;SDS011;41095;53.090;6.692;2023-04-06T05:22:53;10.13;;;9.10;;
53751;SDS011;41095;53.090;6.692;2023-04-06T05:25:19;9.95;;;8.95;;
53751;SDS011;41095;53.090;6.692;2023-04-06T05:27:45;10.02;;;8.85;;
53751;SDS011;41095;53.090;6.692;2023-04-06T05:30:10;9.68;;;8.60;;
53751;SDS011;41095;53.090;6.692;2023-04-06T05:32:36;10.85;;;9.60;;
53751;SDS011;41095;53.090;6.692;2023-04-06T05:35:02;9.70;;;8.80;;
53751;SDS011;41095;53.090;6.692;2023-04-06T05:37:28;8.80;;;7.65;;
53751;SDS011;41095;53.090;6.692;2023-04-06T05:39:54;9.82;;;8.93;;
53751;SDS011;41095;53.090;6.692;2023-04-06T05:42:19;9.20;;;8.30;;
53751;SDS011;41095;53.090;6.692;2023-04-06T05:44:45;13.48;;;9.60;;
53751;SDS011;41095;53.090;6.692;2023-04-06T05:47:11;12.30;;;9.65;;
53751;SDS011;41095;53.090;6.692;2023-04-06T05:49:36;9.65;;;8.73;;
53751;SDS011;41095;53.090;6.692;2023-04-06T05:52:02;14.18;;;9.52;;
53751;SDS011;41095;53.090;6.692;2023-04-06T05:54:29;10.57;;;9.10;;
53751;SDS011;41095;53.090;6.692;2023-04-06T05:56:55;10.70;;;9.63;;
53751;SDS011;41095;53.090;6.692;2023-04-06T05:59:20;10.82;;;9.45;;
53751;SDS011;41095;53.090;6.692;2023-04-06T06:01:46;11.52;;;9.63;;
53751;SDS011;41095;53.090;6.692;2023-04-06T06:04:12;10.45;;;8.75;;
53751;SDS011;41095;53.090;6.692;2023-04-06T06:06:38;10.88;;;9.07;;
53751;SDS011;41095;53.090;6.692;2023-04-06T06:09:03;10.95;;;9.43;;
53751;SDS011;41095;53.090;6.692;2023-04-06T06:11:29;10.38;;;9.10;;
53751;SDS011;41095;53.090;6.692;2023-04-06T06:13:55;10.95;;;9.82;;
53751;SDS011;41095;53.090;6.692;2023-04-06T06:16:21;11.25;;;10.07;;
53751;SDS011;41095;53.090;6.692;2023-04-06T06:18:47;11.10;;;9.70;;
53751;SDS011;41095;53.090;6.692;2023-04-06T06:21:13;12.18;;;9.77;;
53751;SDS011;41095;53.090;6.692;2023-04-06T06:23:39;13.98;;;9.90;;
53751;SDS011;41095;53.090;6.692;2023-04-06T06:26:05;10.65;;;9.52;;
53751;SDS011;41095;53.090;6.692;2023-04-06T06:28:31;10.13;;;9.15;;
53751;SDS011;41095;53.090;6.692;2023-04-06T06:30:56;11.95;;;10.50;;
53751;SDS011;41095;53.090;6.692;2023-04-06T06:33:23;14.05;;;10.23;;
53751;SDS011;41095;53.090;6.692;2023-04-06T06:35:51;14.63;;;10.88;;
53751;SDS011;41095;53.090;6.692;2023-04-06T06:38:17;10.85;;;9.65;;
53751;SDS011;41095;53.090;6.692;2023-04-06T06:40:43;11.52;;;10.32;;
53751;SDS011;41095;53.090;6.692;2023-04-06T06:43:10;14.80;;;10.48;;
53751;SDS011;41095;53.090;6.692;2023-04-06T06:45:35;11.30;;;9.32;;
53751;SDS011;41095;53.090;6.692;2023-04-06T06:48:01;11.98;;;10.55;;
53751;SDS011;41095;53.090;6.692;2023-04-06T06:50:27;10.73;;;9.60;;
53751;SDS011;41095;53.090;6.692;2023-04-06T06:52:52;14.20;;;9.73;;
53751;SDS011;41095;53.090;6.692;2023-04-06T06:55:18;12.35;;;10.63;;
53751;SDS011;41095;53.090;6.692;2023-04-06T06:57:44;12.15;;;9.63;;
53751;SDS011;41095;53.090;6.692;2023-04-06T07:00:11;13.82;;;10.80;;
53751;SDS011;41095;53.090;6.692;2023-04-06T07:02:39;14.20;;;10.32;;
53751;SDS011;41095;53.090;6.692;2023-04-06T07:05:05;11.70;;;9.75;;
53751;SDS011;41095;53.090;6.692;2023-04-06T07:07:31;10.65;;;9.38;;
53751;SDS011;41095;53.090;6.692;2023-04-06T07:09:58;13.38;;;10.35;;
53751;SDS011;41095;53.090;6.692;2023-04-06T07:12:25;11.82;;;10.63;;
53751;SDS011;41095;53.090;6.692;2023-04-06T07:14:51;12.43;;;10.05;;
53751;SDS011;41095;53.090;6.692;2023-04-06T07:17:16;12.68;;;10.20;;
53751;SDS011;41095;53.090;6.692;2023-04-06T07:19:42;14.00;;;10.60;;
53751;SDS011;41095;53.090;6.692;2023-04-06T07:22:08;12.77;;;10.45;;
53751;SDS011;41095;53.090;6.692;2023-04-06T07:24:34;10.52;;;9.45;;
53751;SDS011;41095;53.090;6.692;2023-04-06T07:26:59;11.35;;;9.15;;
53751;SDS011;41095;53.090;6.692;2023-04-06T07:29:26;12.55;;;9.52;;
53751;SDS011;41095;53.090;6.692;2023-04-06T07:31:52;9.55;;;8.13;;
53751;SDS011;41095;53.090;6.692;2023-04-06T07:34:18;11.65;;;9.23;;
53751;SDS011;41095;53.090;6.692;2023-04-06T07:36:44;9.43;;;8.07;;
53751;SDS011;41095;53.090;6.692;2023-04-06T07:39:10;9.60;;;8.63;;
53751;SDS011;41095;53.090;6.692;2023-04-06T07:41:36;10.30;;;8.88;;
53751;SDS011;41095;53.090;6.692;2023-04-06T07:44:02;12.85;;;9.40;;
53751;SDS011;41095;53.090;6.692;2023-04-06T07:46:30;9.32;;;7.88;;
53751;SDS011;41095;53.090;6.692;2023-04-06T07:48:56;8.50;;;6.95;;
53751;SDS011;41095;53.090;6.692;2023-04-06T07:51:23;6.78;;;6.13;;
53751;SDS011;41095;53.090;6.692;2023-04-06T07:53:50;17.08;;;7.63;;
53751;SDS011;41095;53.090;6.692;2023-04-06T07:56:16;9.02;;;6.95;;
53751;SDS011;41095;53.090;6.692;2023-04-06T07:58:42;11.13;;;7.88;;
53751;SDS011;41095;53.090;6.692;2023-04-06T08:01:08;9.02;;;7.28;;
53751;SDS011;41095;53.090;6.692;2023-04-06T08:03:34;9.57;;;7.53;;
53751;SDS011;41095;53.090;6.692;2023-04-06T08:06:00;9.40;;;7.55;;
53751;SDS011;41095;53.090;6.692;2023-04-06T08:08:26;8.55;;;7.65;;
53751;SDS011;41095;53.090;6.692;2023-04-06T08:10:52;9.02;;;7.35;;
53751;SDS011;41095;53.090;6.692;2023-04-06T08:13:17;8.73;;;7.75;;
53751;SDS011;41095;53.090;6.692;2023-04-06T08:15:43;7.53;;;6.90;;
53751;SDS011;41095;53.090;6.692;2023-04-06T08:18:09;9.20;;;7.55;;
53751;SDS011;41095;53.090;6.692;2023-04-06T08:20:35;9.88;;;7.35;;
53751;SDS011;41095;53.090;6.692;2023-04-06T08:23:01;9.35;;;8.35;;
53751;SDS011;41095;53.090;6.692;2023-04-06T08:25:27;11.48;;;8.30;;
53751;SDS011;41095;53.090;6.692;2023-04-06T08:27:52;9.35;;;7.75;;
53751;SDS011;41095;53.090;6.692;2023-04-06T08:30:18;9.30;;;8.30;;
53751;SDS011;41095;53.090;6.692;2023-04-06T08:32:47;10.35;;;8.57;;
53751;SDS011;41095;53.090;6.692;2023-04-06T08:35:13;10.15;;;8.57;;
53751;SDS011;41095;53.090;6.692;2023-04-06T08:37:38;11.77;;;8.85;;
53751;SDS011;41095;53.090;6.692;2023-04-06T08:40:04;9.00;;;8.10;;
53751;SDS011;41095;53.090;6.692;2023-04-06T08:42:33;11.48;;;8.52;;
53751;SDS011;41095;53.090;6.692;2023-04-06T08:45:07;12.18;;;8.75;;
53751;SDS011;41095;53.090;6.692;2023-04-06T08:47:34;8.55;;;7.75;;
53751;SDS011;41095;53.090;6.692;2023-04-06T08:50:03;9.77;;;8.27;;
53751;SDS011;41095;53.090;6.692;2023-04-06T08:52:29;10.38;;;8.73;;
53751;SDS011;41095;53.090;6.692;2023-04-06T08:54:58;11.23;;;8.55;;
53751;SDS011;41095;53.090;6.692;2023-04-06T08:57:24;9.02;;;7.93;;
53751;SDS011;41095;53.090;6.692;2023-04-06T08:59:51;11.90;;;8.25;;
53751;SDS011;41095;53.090;6.692;2023-04-06T09:02:17;11.75;;;9.35;;
53751;SDS011;41095;53.090;6.692;2023-04-06T09:04:45;9.63;;;8.48;;
53751;SDS011;41095;53.090;6.692;2023-04-06T09:07:13;9.05;;;8.15;;
53751;SDS011;41095;53.090;6.692;2023-04-06T09:09:40;9.05;;;7.55;;
53751;SDS011;41095;53.090;6.692;2023-04-06T09:12:21;9.15;;;7.90;;
53751;SDS011;41095;53.090;6.692;2023-04-06T09:14:51;10.30;;;8.48;;
53751;SDS011;41095;53.090;6.692;2023-04-06T09:17:21;11.00;;;8.57;;
53751;SDS011;41095;53.090;6.692;2023-04-06T09:19:51;11.13;;;7.90;;
53751;SDS011;41095;53.090;6.692;2023-04-06T09:22:18;11.65;;;7.82;;
53751;SDS011;41095;53.090;6.692;2023-04-06T09:24:51;10.48;;;7.53;;
53751;SDS011;41095;53.090;6.692;2023-04-06T09:27:29;11.07;;;8.13;;
53751;SDS011;41095;53.090;6.692;2023-04-06T09:30:09;11.40;;;8.65;;
53751;SDS011;41095;53.090;6.692;2023-04-06T09:35:11;8.65;;;7.45;;
53751;SDS011;41095;53.090;6.692;2023-04-06T09:37:37;11.05;;;8.90;;
53751;SDS011;41095;53.090;6.692;2023-04-06T09:40:04;9.68;;;8.35;;
53751;SDS011;41095;53.090;6.692;2023-04-06T09:42:31;11.30;;;9.52;;
53751;SDS011;41095;53.090;6.692;2023-04-06T09:44:56;10.75;;;9.18;;
53751;SDS011;41095;53.090;6.692;2023-04-06T09:47:22;8.48;;;7.32;;
53751;SDS011;41095;53.090;6.692;2023-04-06T09:49:52;11.55;;;9.30;;
53751;SDS011;41095;53.090;6.692;2023-04-06T09:52:42;8.93;;;7.75;;
53751;SDS011;41095;53.090;6.692;2023-04-06T09:55:11;13.40;;;8.90;;
53751;SDS011;41095;53.090;6.692;2023-04-06T09:57:44;10.40;;;8.77;;
53751;SDS011;41095;53.090;6.692;2023-04-06T10:00:17;13.13;;;8.88;;
53751;SDS011;41095;53.090;6.692;2023-04-06T10:05:46;13.27;;;8.90;;
53751;SDS011;41095;53.090;6.692;2023-04-06T10:08:20;16.42;;;9.55;;
53751;SDS011;41095;53.090;6.692;2023-04-06T10:10:49;10.95;;;8.95;;
53751;SDS011;41095;53.090;6.692;2023-04-06T10:13:16;12.68;;;10.45;;
53751;SDS011;41095;53.090;6.692;2023-04-06T10:15:44;14.73;;;10.50;;
53751;SDS011;41095;53.090;6.692;2023-04-06T10:18:10;15.85;;;9.85;;
53751;SDS011;41095;53.090;6.692;2023-04-06T10:20:56;15.13;;;10.10;;
53751;SDS011;41095;53.090;6.692;2023-04-06T10:23:31;15.15;;;10.05;;
53751;SDS011;41095;53.090;6.692;2023-04-06T10:28:30;14.75;;;9.45;;
53751;SDS011;41095;53.090;6.692;2023-04-06T10:30:58;16.83;;;10.00;;
53751;SDS011;41095;53.090;6.692;2023-04-06T10:33:25;13.38;;;11.35;;
53751;SDS011;41095;53.090;6.692;2023-04-06T10:35:51;13.57;;;9.05;;
53751;SDS011;41095;53.090;6.692;2023-04-06T10:38:16;12.52;;;10.82;;
53751;SDS011;41095;53.090;6.692;2023-04-06T10:40:46;16.85;;;12.10;;
53751;SDS011;41095;53.090;6.692;2023-04-06T10:43:13;20.15;;;12.05;;
53751;SDS011;41095;53.090;6.692;2023-04-06T10:45:56;15.02;;;12.20;;
53751;SDS011;41095;53.090;6.692;2023-04-06T10:48:22;19.77;;;13.82;;
53751;SDS011;41095;53.090;6.692;2023-04-06T10:50:52;18.92;;;14.30;;
53751;SDS011;41095;53.090;6.692;2023-04-06T10:53:25;20.60;;;15.82;;
53751;SDS011;41095;53.090;6.692;2023-04-06T10:55:52;17.73;;;13.70;;
53751;SDS011;41095;53.090;6.692;2023-04-06T10:58:19;23.75;;;15.05;;
53751;SDS011;41095;53.090;6.692;2023-04-06T11:00:45;21.48;;;13.30;;
53751;SDS011;41095;53.090;6.692;2023-04-06T11:03:12;21.60;;;15.63;;
53751;SDS011;41095;53.090;6.692;2023-04-06T11:05:38;27.15;;;17.02;;
53751;SDS011;41095;53.090;6.692;2023-04-06T11:08:08;21.10;;;16.13;;
53751;SDS011;41095;53.090;6.692;2023-04-06T11:10:33;18.20;;;15.38;;
53751;SDS011;41095;53.090;6.692;2023-04-06T11:12:59;22.27;;;14.70;;
53751;SDS011;41095;53.090;6.692;2023-04-06T11:15:25;20.50;;;15.75;;
53751;SDS011;41095;53.090;6.692;2023-04-06T11:17:51;21.67;;;14.90;;
53751;SDS011;41095;53.090;6.692;2023-04-06T11:20:16;23.35;;;16.38;;
53751;SDS011;41095;53.090;6.692;2023-04-06T11:22:51;22.38;;;15.90;;
53751;SDS011;41095;53.090;6.692;2023-04-06T11:25:17;18.08;;;15.23;;
53751;SDS011;41095;53.090;6.692;2023-04-06T11:27:43;25.67;;;15.13;;
53751;SDS011;41095;53.090;6.692;2023-04-06T11:30:11;22.67;;;16.23;;
53751;SDS011;41095;53.090;6.692;2023-04-06T11:32:41;23.98;;;16.77;;
53751;SDS011;41095;53.090;6.692;2023-04-06T11:35:10;21.80;;;16.17;;
53751;SDS011;41095;53.090;6.692;2023-04-06T11:37:56;18.60;;;14.35;;
53751;SDS011;41095;53.090;6.692;2023-04-06T11:40:22;18.85;;;15.40;;
53751;SDS011;41095;53.090;6.692;2023-04-06T11:42:55;23.52;;;16.05;;
53751;SDS011;41095;53.090;6.692;2023-04-06T11:45:21;22.65;;;14.73;;
53751;SDS011;41095;53.090;6.692;2023-04-06T11:47:55;20.38;;;15.82;;
53751;SDS011;41095;53.090;6.692;2023-04-06T11:50:22;18.58;;;13.70;;
53751;SDS011;41095;53.090;6.692;2023-04-06T11:52:48;21.90;;;16.45;;
53751;SDS011;41095;53.090;6.692;2023-04-06T11:55:25;24.77;;;17.50;;
53751;SDS011;41095;53.090;6.692;2023-04-06T11:57:50;23.77;;;17.60;;
53751;SDS011;41095;53.090;6.692;2023-04-06T12:00:16;22.20;;;16.88;;
53751;SDS011;41095;53.090;6.692;2023-04-06T12:02:45;24.83;;;18.08;;
53751;SDS011;41095;53.090;6.692;2023-04-06T12:05:12;22.38;;;16.85;;
53751;SDS011;41095;53.090;6.692;2023-04-06T12:07:38;25.17;;;17.75;;
53751;SDS011;41095;53.090;6.692;2023-04-06T12:10:04;22.05;;;15.30;;
53751;SDS011;41095;53.090;6.692;2023-04-06T12:12:30;21.63;;;16.17;;
53751;SDS011;41095;53.090;6.692;2023-04-06T12:14:56;25.17;;;17.30;;
53751;SDS011;41095;53.090;6.692;2023-04-06T12:17:22;24.70;;;16.70;;
53751;SDS011;41095;53.090;6.692;2023-04-06T12:19:48;28.35;;;17.67;;
53751;SDS011;41095;53.090;6.692;2023-04-06T12:22:14;21.30;;;18.55;;
53751;SDS011;41095;53.090;6.692;2023-04-06T12:24:40;26.40;;;17.88;;
53751;SDS011;41095;53.090;6.692;2023-04-06T12:27:06;17.80;;;11.73;;
53751;SDS011;41095;53.090;6.692;2023-04-06T12:29:32;25.67;;;16.60;;
53751;SDS011;41095;53.090;6.692;2023-04-06T12:31:57;23.27;;;15.55;;
53751;SDS011;41095;53.090;6.692;2023-04-06T12:34:26;21.85;;;16.13;;
53751;SDS011;41095;53.090;6.692;2023-04-06T12:36:52;25.00;;;16.70;;
53751;SDS011;41095;53.090;6.692;2023-04-06T12:39:18;24.27;;;18.30;;
53751;SDS011;41095;53.090;6.692;2023-04-06T12:41:44;22.58;;;15.98;;
53751;SDS011;41095;53.090;6.692;2023-04-06T12:44:10;26.92;;;16.10;;
53751;SDS011;41095;53.090;6.692;2023-04-06T12:46:36;24.75;;;16.85;;
53751;SDS011;41095;53.090;6.692;2023-04-06T12:49:01;24.00;;;16.90;;
53751;SDS011;41095;53.090;6.692;2023-04-06T12:51:28;25.92;;;18.98;;
53751;SDS011;41095;53.090;6.692;2023-04-06T12:53:54;23.35;;;15.70;;
53751;SDS011;41095;53.090;6.692;2023-04-06T12:56:20;26.00;;;18.05;;
53751;SDS011;41095;53.090;6.692;2023-04-06T12:58:47;25.73;;;17.05;;
53751;SDS011;41095;53.090;6.692;2023-04-06T13:01:15;26.02;;;17.20;;
53751;SDS011;41095;53.090;6.692;2023-04-06T13:03:41;23.35;;;15.80;;
53751;SDS011;41095;53.090;6.692;2023-04-06T13:06:07;31.08;;;17.17;;
53751;SDS011;41095;53.090;6.692;2023-04-06T13:08:34;26.58;;;17.60;;
53751;SDS011;41095;53.090;6.692;2023-04-06T13:11:02;23.40;;;15.60;;
53751;SDS011;41095;53.090;6.692;2023-04-06T13:13:28;25.98;;;16.60;;
53751;SDS011;41095;53.090;6.692;2023-04-06T13:15:58;24.83;;;17.67;;
53751;SDS011;41095;53.090;6.692;2023-04-06T13:18:29;19.98;;;16.10;;
53751;SDS011;41095;53.090;6.692;2023-04-06T13:20:56;29.33;;;18.20;;
53751;SDS011;41095;53.090;6.692;2023-04-06T13:23:22;23.42;;;16.58;;
53751;SDS011;41095;53.090;6.692;2023-04-06T13:25:56;23.70;;;16.02;;
53751;SDS011;41095;53.090;6.692;2023-04-06T13:28:26;23.45;;;16.27;;
53751;SDS011;41095;53.090;6.692;2023-04-06T13:30:52;28.63;;;17.27;;
53751;SDS011;41095;53.090;6.692;2023-04-06T13:33:18;25.90;;;17.38;;
53751;SDS011;41095;53.090;6.692;2023-04-06T13:35:44;25.10;;;17.67;;
53751;SDS011;41095;53.090;6.692;2023-04-06T13:38:10;24.02;;;17.38;;
53751;SDS011;41095;53.090;6.692;2023-04-06T13:40:39;23.48;;;17.00;;
53751;SDS011;41095;53.090;6.692;2023-04-06T13:43:06;25.40;;;17.27;;
53751;SDS011;41095;53.090;6.692;2023-04-06T13:45:32;27.00;;;18.70;;
53751;SDS011;41095;53.090;6.692;2023-04-06T13:47:58;24.10;;;15.55;;
53751;SDS011;41095;53.090;6.692;2023-04-06T13:50:27;28.02;;;17.77;;
53751;SDS011;41095;53.090;6.692;2023-04-06T13:52:53;25.10;;;16.15;;
53751;SDS011;41095;53.090;6.692;2023-04-06T13:55:18;22.88;;;16.67;;
53751;SDS011;41095;53.090;6.692;2023-04-06T13:57:44;21.80;;;15.30;;
53751;SDS011;41095;53.090;6.692;2023-04-06T14:00:10;24.40;;;15.23;;
53751;SDS011;41095;53.090;6.692;2023-04-06T14:02:38;22.30;;;14.70;;
53751;SDS011;41095;53.090;6.692;2023-04-06T14:05:04;22.65;;;14.32;;
53751;SDS011;41095;53.090;6.692;2023-04-06T14:07:30;20.55;;;14.80;;
53751;SDS011;41095;53.090;6.692;2023-04-06T14:09:56;21.98;;;14.40;;
53751;SDS011;41095;53.090;6.692;2023-04-06T14:12:22;21.88;;;15.38;;
53751;SDS011;41095;53.090;6.692;2023-04-06T14:14:47;23.73;;;14.20;;
53751;SDS011;41095;53.090;6.692;2023-04-06T14:17:13;21.80;;;14.52;;
53751;SDS011;41095;53.090;6.692;2023-04-06T14:19:39;20.60;;;13.70;;
53751;SDS011;41095;53.090;6.692;2023-04-06T14:22:05;18.98;;;14.60;;
53751;SDS011;41095;53.090;6.692;2023-04-06T14:24:30;19.88;;;13.90;;
53751;SDS011;41095;53.090;6.692;2023-04-06T14:26:56;16.85;;;12.25;;
53751;SDS011;41095;53.090;6.692;2023-04-06T14:29:22;26.50;;;13.85;;
53751;SDS011;41095;53.090;6.692;2023-04-06T14:31:48;18.50;;;11.73;;
53751;SDS011;41095;53.090;6.692;2023-04-06T14:34:14;19.33;;;12.75;;
53751;SDS011;41095;53.090;6.692;2023-04-06T14:36:41;18.73;;;13.57;;
53751;SDS011;41095;53.090;6.692;2023-04-06T14:39:07;17.67;;;12.50;;
53751;SDS011;41095;53.090;6.692;2023-04-06T14:41:33;18.38;;;14.10;;